sensor_id;sensor_type;location;lat;lon;timestamp;P1;durP1;ratioP1;P2;durP2;ratioP2
19436;SDS011;9854;50.968;4.168;2023-02-12T00:02:16;13.68;;;12.48;;
19436;SDS011;9854;50.968;4.168;2023-02-12T00:04:43;20.67;;;14.00;;
19436;SDS011;9854;50.968;4.168;2023-02-12T00:07:09;16.05;;;12.73;;
19436;SDS011;9854;50.968;4.168;2023-02-12T00:09:35;14.48;;;12.57;;
19436;SDS011;9854;50.968;4.168;2023-02-12T00:12:01;18.40;;;13.15;;
19436;SDS011;9854;50.968;4.168;2023-02-12T00:14:27;14.02;;;11.73;;
19436;SDS011;9854;50.968;4.168;2023-02-12T00:16:52;12.02;;;10.93;;
19436;SDS011;9854;50.968;4.168;2023-02-12T00:19:18;13.23;;;11.93;;
19436;SDS011;9854;50.968;4.168;2023-02-12T00:21:43;12.88;;;11.00;;
19436;SDS011;9854;50.968;4.168;2023-02-12T00:24:09;12.93;;;11.73;;
19436;SDS011;9854;50.968;4.168;2023-02-12T00:26:35;12.63;;;11.35;;
19436;SDS011;9854;50.968;4.168;2023-02-12T00:29:00;15.50;;;12.93;;
19436;SDS011;9854;50.968;4.168;2023-02-12T00:31:27;11.98;;;10.77;;
19436;SDS011;9854;50.968;4.168;2023-02-12T00:33:55;12.73;;;11.63;;
19436;SDS011;9854;50.968;4.168;2023-02-12T00:36:24;12.98;;;11.77;;
19436;SDS011;9854;50.968;4.168;2023-02-12T00:38:51;13.93;;;12.38;;
19436;SDS011;9854;50.968;4.168;2023-02-12T00:41:19;15.23;;;12.52;;
19436;SDS011;9854;50.968;4.168;2023-02-12T00:43:45;14.77;;;13.18;;
19436;SDS011;9854;50.968;4.168;2023-02-12T00:46:11;16.25;;;13.80;;
19436;SDS011;9854;50.968;4.168;2023-02-12T00:48:37;14.27;;;12.95;;
19436;SDS011;9854;50.968;4.168;2023-02-12T00:51:03;15.20;;;13.73;;
19436;SDS011;9854;50.968;4.168;2023-02-12T00:53:29;14.77;;;13.23;;
19436;SDS011;9854;50.968;4.168;2023-02-12T00:55:55;13.93;;;12.50;;
19436;SDS011;9854;50.968;4.168;2023-02-12T00:58:21;11.77;;;10.68;;
19436;SDS011;9854;50.968;4.168;2023-02-12T01:00:47;11.95;;;11.00;;
19436;SDS011;9854;50.968;4.168;2023-02-12T01:03:13;16.95;;;11.60;;
19436;SDS011;9854;50.968;4.168;2023-02-12T01:05:39;10.70;;;9.80;;
19436;SDS011;9854;50.968;4.168;2023-02-12T01:08:05;11.45;;;10.55;;
19436;SDS011;9854;50.968;4.168;2023-02-12T01:10:30;11.80;;;10.80;;
19436;SDS011;9854;50.968;4.168;2023-02-12T01:12:56;12.05;;;11.07;;
19436;SDS011;9854;50.968;4.168;2023-02-12T01:15:22;12.38;;;11.18;;
19436;SDS011;9854;50.968;4.168;2023-02-12T01:17:52;12.32;;;11.32;;
19436;SDS011;9854;50.968;4.168;2023-02-12T01:20:19;11.32;;;10.30;;
19436;SDS011;9854;50.968;4.168;2023-02-12T01:22:46;11.73;;;10.73;;
19436;SDS011;9854;50.968;4.168;2023-02-12T01:25:12;10.95;;;9.95;;
19436;SDS011;9854;50.968;4.168;2023-02-12T01:27:38;9.95;;;9.25;;
19436;SDS011;9854;50.968;4.168;2023-02-12T01:30:04;10.30;;;9.38;;
19436;SDS011;9854;50.968;4.168;2023-02-12T01:32:32;9.45;;;8.75;;
19436;SDS011;9854;50.968;4.168;2023-02-12T01:34:58;10.00;;;9.30;;
19436;SDS011;9854;50.968;4.168;2023-02-12T01:37:24;10.25;;;9.30;;
19436;SDS011;9854;50.968;4.168;2023-02-12T01:39:50;10.30;;;9.60;;
19436;SDS011;9854;50.968;4.168;2023-02-12T01:42:15;10.45;;;9.75;;
19436;SDS011;9854;50.968;4.168;2023-02-12T01:44:45;10.23;;;9.43;;
19436;SDS011;9854;50.968;4.168;2023-02-12T01:47:41;10.60;;;9.60;;
19436;SDS011;9854;50.968;4.168;2023-02-12T01:50:09;11.50;;;9.10;;
19436;SDS011;9854;50.968;4.168;2023-02-12T01:52:42;11.43;;;10.35;;
19436;SDS011;9854;50.968;4.168;2023-02-12T01:55:15;11.15;;;10.05;;
19436;SDS011;9854;50.968;4.168;2023-02-12T01:57:43;11.68;;;10.68;;
19436;SDS011;9854;50.968;4.168;2023-02-12T02:00:13;11.35;;;10.35;;
19436;SDS011;9854;50.968;4.168;2023-02-12T02:02:45;11.45;;;10.48;;
19436;SDS011;9854;50.968;4.168;2023-02-12T02:05:20;12.43;;;11.30;;
19436;SDS011;9854;50.968;4.168;2023-02-12T02:07:52;10.63;;;9.70;;
19436;SDS011;9854;50.968;4.168;2023-02-12T02:10:18;11.18;;;10.35;;
19436;SDS011;9854;50.968;4.168;2023-02-12T02:12:43;11.27;;;10.48;;
19436;SDS011;9854;50.968;4.168;2023-02-12T02:15:27;13.38;;;12.25;;
19436;SDS011;9854;50.968;4.168;2023-02-12T02:18:13;13.38;;;12.00;;
19436;SDS011;9854;50.968;4.168;2023-02-12T02:31:54;15.20;;;13.95;;
19436;SDS011;9854;50.968;4.168;2023-02-12T02:34:33;16.02;;;14.43;;
19436;SDS011;9854;50.968;4.168;2023-02-12T02:37:29;16.10;;;14.50;;
19436;SDS011;9854;50.968;4.168;2023-02-12T02:40:19;14.75;;;13.10;;
19436;SDS011;9854;50.968;4.168;2023-02-12T02:45:35;13.35;;;12.35;;
19436;SDS011;9854;50.968;4.168;2023-02-12T02:48:16;13.70;;;12.40;;
19436;SDS011;9854;50.968;4.168;2023-02-12T02:50:52;13.93;;;12.63;;
19436;SDS011;9854;50.968;4.168;2023-02-12T02:53:27;14.43;;;13.05;;
19436;SDS011;9854;50.968;4.168;2023-02-12T02:56:07;15.38;;;13.88;;
19436;SDS011;9854;50.968;4.168;2023-02-12T02:58:41;15.60;;;14.23;;
19436;SDS011;9854;50.968;4.168;2023-02-12T03:01:15;16.33;;;14.73;;
19436;SDS011;9854;50.968;4.168;2023-02-12T03:03:55;15.70;;;14.30;;
19436;SDS011;9854;50.968;4.168;2023-02-12T03:12:00;21.20;;;15.40;;
19436;SDS011;9854;50.968;4.168;2023-02-12T03:14:31;17.92;;;16.15;;
19436;SDS011;9854;50.968;4.168;2023-02-12T03:17:05;17.83;;;15.90;;
19436;SDS011;9854;50.968;4.168;2023-02-12T03:19:58;19.30;;;16.98;;
19436;SDS011;9854;50.968;4.168;2023-02-12T03:22:38;20.33;;;18.23;;
19436;SDS011;9854;50.968;4.168;2023-02-12T03:25:10;21.27;;;19.27;;
19436;SDS011;9854;50.968;4.168;2023-02-12T03:30:36;23.80;;;19.00;;
19436;SDS011;9854;50.968;4.168;2023-02-12T03:36:01;18.35;;;16.60;;
19436;SDS011;9854;50.968;4.168;2023-02-12T03:38:41;19.02;;;17.40;;
19436;SDS011;9854;50.968;4.168;2023-02-12T03:41:54;19.00;;;17.30;;
19436;SDS011;9854;50.968;4.168;2023-02-12T03:47:04;18.13;;;16.40;;
19436;SDS011;9854;50.968;4.168;2023-02-12T03:52:27;19.73;;;17.83;;
19436;SDS011;9854;50.968;4.168;2023-02-12T03:54:53;18.15;;;16.33;;
19436;SDS011;9854;50.968;4.168;2023-02-12T03:57:20;20.33;;;18.42;;
19436;SDS011;9854;50.968;4.168;2023-02-12T03:59:49;19.98;;;18.00;;
19436;SDS011;9854;50.968;4.168;2023-02-12T04:02:15;22.73;;;19.20;;
19436;SDS011;9854;50.968;4.168;2023-02-12T04:04:43;20.53;;;18.57;;
19436;SDS011;9854;50.968;4.168;2023-02-12T04:07:10;19.45;;;17.40;;
19436;SDS011;9854;50.968;4.168;2023-02-12T04:09:37;19.88;;;18.05;;
19436;SDS011;9854;50.968;4.168;2023-02-12T04:20:27;22.17;;;19.85;;
19436;SDS011;9854;50.968;4.168;2023-02-12T04:26:06;20.95;;;19.08;;
19436;SDS011;9854;50.968;4.168;2023-02-12T04:34:14;21.63;;;19.75;;
19436;SDS011;9854;50.968;4.168;2023-02-12T04:37:05;21.42;;;19.27;;
19436;SDS011;9854;50.968;4.168;2023-02-12T04:39:54;21.88;;;19.67;;
19436;SDS011;9854;50.968;4.168;2023-02-12T04:42:22;21.75;;;19.60;;
19436;SDS011;9854;50.968;4.168;2023-02-12T04:44:47;23.20;;;21.10;;
19436;SDS011;9854;50.968;4.168;2023-02-12T04:47:14;24.73;;;21.05;;
19436;SDS011;9854;50.968;4.168;2023-02-12T04:49:40;23.35;;;21.05;;
19436;SDS011;9854;50.968;4.168;2023-02-12T04:52:06;22.50;;;20.25;;
19436;SDS011;9854;50.968;4.168;2023-02-12T04:54:32;25.00;;;22.25;;
19436;SDS011;9854;50.968;4.168;2023-02-12T04:56:58;26.52;;;21.17;;
19436;SDS011;9854;50.968;4.168;2023-02-12T04:59:24;24.58;;;22.20;;
19436;SDS011;9854;50.968;4.168;2023-02-12T05:01:50;25.27;;;22.65;;
19436;SDS011;9854;50.968;4.168;2023-02-12T05:04:16;25.73;;;22.95;;
19436;SDS011;9854;50.968;4.168;2023-02-12T05:06:43;25.60;;;22.92;;
19436;SDS011;9854;50.968;4.168;2023-02-12T05:09:12;27.30;;;24.23;;
19436;SDS011;9854;50.968;4.168;2023-02-12T05:11:39;29.80;;;26.90;;
19436;SDS011;9854;50.968;4.168;2023-02-12T05:14:05;28.58;;;25.77;;
19436;SDS011;9854;50.968;4.168;2023-02-12T05:16:31;28.67;;;25.88;;
19436;SDS011;9854;50.968;4.168;2023-02-12T05:18:57;28.27;;;25.48;;
19436;SDS011;9854;50.968;4.168;2023-02-12T05:21:23;28.40;;;25.37;;
19436;SDS011;9854;50.968;4.168;2023-02-12T05:23:48;28.07;;;25.23;;
19436;SDS011;9854;50.968;4.168;2023-02-12T05:26:17;28.25;;;25.35;;
19436;SDS011;9854;50.968;4.168;2023-02-12T05:28:44;29.95;;;26.90;;
19436;SDS011;9854;50.968;4.168;2023-02-12T05:31:12;29.00;;;25.90;;
19436;SDS011;9854;50.968;4.168;2023-02-12T05:33:43;30.45;;;27.40;;
19436;SDS011;9854;50.968;4.168;2023-02-12T05:36:11;31.85;;;28.48;;
19436;SDS011;9854;50.968;4.168;2023-02-12T05:38:39;33.92;;;28.15;;
19436;SDS011;9854;50.968;4.168;2023-02-12T05:41:06;32.13;;;28.37;;
19436;SDS011;9854;50.968;4.168;2023-02-12T05:43:33;33.37;;;29.87;;
19436;SDS011;9854;50.968;4.168;2023-02-12T05:46:00;31.93;;;28.50;;
19436;SDS011;9854;50.968;4.168;2023-02-12T05:48:27;32.50;;;29.10;;
19436;SDS011;9854;50.968;4.168;2023-02-12T05:50:53;31.88;;;28.67;;
19436;SDS011;9854;50.968;4.168;2023-02-12T05:53:25;32.50;;;29.20;;
19436;SDS011;9854;50.968;4.168;2023-02-12T05:55:50;32.67;;;29.07;;
19436;SDS011;9854;50.968;4.168;2023-02-12T05:58:16;34.03;;;30.38;;
19436;SDS011;9854;50.968;4.168;2023-02-12T06:00:42;34.63;;;30.27;;
19436;SDS011;9854;50.968;4.168;2023-02-12T06:03:07;33.67;;;30.27;;
19436;SDS011;9854;50.968;4.168;2023-02-12T06:05:33;34.33;;;30.23;;
19436;SDS011;9854;50.968;4.168;2023-02-12T06:07:58;34.63;;;29.85;;
19436;SDS011;9854;50.968;4.168;2023-02-12T06:10:24;34.22;;;30.30;;
19436;SDS011;9854;50.968;4.168;2023-02-12T06:12:53;35.45;;;31.05;;
19436;SDS011;9854;50.968;4.168;2023-02-12T06:15:20;35.90;;;32.20;;
19436;SDS011;9854;50.968;4.168;2023-02-12T06:17:46;36.07;;;30.63;;
19436;SDS011;9854;50.968;4.168;2023-02-12T06:20:11;38.35;;;31.38;;
19436;SDS011;9854;50.968;4.168;2023-02-12T06:22:37;33.00;;;29.60;;
19436;SDS011;9854;50.968;4.168;2023-02-12T06:25:03;32.80;;;29.33;;
19436;SDS011;9854;50.968;4.168;2023-02-12T06:27:29;35.83;;;30.48;;
19436;SDS011;9854;50.968;4.168;2023-02-12T06:29:55;32.67;;;29.38;;
19436;SDS011;9854;50.968;4.168;2023-02-12T06:32:21;34.72;;;29.90;;
19436;SDS011;9854;50.968;4.168;2023-02-12T06:34:46;35.38;;;30.33;;
19436;SDS011;9854;50.968;4.168;2023-02-12T06:37:12;33.78;;;30.40;;
19436;SDS011;9854;50.968;4.168;2023-02-12T06:39:38;40.25;;;32.33;;
19436;SDS011;9854;50.968;4.168;2023-02-12T06:42:03;35.33;;;31.65;;
19436;SDS011;9854;50.968;4.168;2023-02-12T06:44:29;34.65;;;31.15;;
19436;SDS011;9854;50.968;4.168;2023-02-12T06:46:55;34.57;;;31.00;;
19436;SDS011;9854;50.968;4.168;2023-02-12T06:49:22;35.80;;;32.10;;
19436;SDS011;9854;50.968;4.168;2023-02-12T06:51:48;36.15;;;32.47;;
19436;SDS011;9854;50.968;4.168;2023-02-12T06:54:17;36.58;;;32.80;;
19436;SDS011;9854;50.968;4.168;2023-02-12T06:56:43;31.95;;;28.75;;
19436;SDS011;9854;50.968;4.168;2023-02-12T06:59:12;25.60;;;23.03;;
19436;SDS011;9854;50.968;4.168;2023-02-12T07:01:39;22.73;;;20.00;;
19436;SDS011;9854;50.968;4.168;2023-02-12T07:04:05;23.35;;;21.08;;
19436;SDS011;9854;50.968;4.168;2023-02-12T07:06:33;23.58;;;21.27;;
19436;SDS011;9854;50.968;4.168;2023-02-12T07:09:00;34.13;;;30.75;;
19436;SDS011;9854;50.968;4.168;2023-02-12T07:11:27;36.30;;;32.28;;
19436;SDS011;9854;50.968;4.168;2023-02-12T07:13:55;38.60;;;34.50;;
19436;SDS011;9854;50.968;4.168;2023-02-12T07:16:21;35.78;;;31.98;;
19436;SDS011;9854;50.968;4.168;2023-02-12T07:18:48;35.70;;;31.90;;
19436;SDS011;9854;50.968;4.168;2023-02-12T07:21:14;29.90;;;26.75;;
19436;SDS011;9854;50.968;4.168;2023-02-12T07:23:40;21.53;;;19.60;;
19436;SDS011;9854;50.968;4.168;2023-02-12T07:26:10;24.02;;;20.10;;
19436;SDS011;9854;50.968;4.168;2023-02-12T07:28:37;29.05;;;24.25;;
19436;SDS011;9854;50.968;4.168;2023-02-12T07:31:13;37.97;;;28.95;;
19436;SDS011;9854;50.968;4.168;2023-02-12T07:33:42;37.95;;;32.05;;
19436;SDS011;9854;50.968;4.168;2023-02-12T07:36:10;36.22;;;31.65;;
19436;SDS011;9854;50.968;4.168;2023-02-12T07:38:38;39.70;;;35.43;;
19436;SDS011;9854;50.968;4.168;2023-02-12T07:43:32;44.23;;;37.20;;
19436;SDS011;9854;50.968;4.168;2023-02-12T07:46:05;47.50;;;38.80;;
19436;SDS011;9854;50.968;4.168;2023-02-12T07:48:42;41.85;;;36.88;;
19436;SDS011;9854;50.968;4.168;2023-02-12T07:51:09;42.47;;;37.90;;
19436;SDS011;9854;50.968;4.168;2023-02-12T07:53:37;53.15;;;39.20;;
19436;SDS011;9854;50.968;4.168;2023-02-12T07:58:31;47.70;;;38.58;;
19436;SDS011;9854;50.968;4.168;2023-02-12T08:00:57;44.78;;;36.47;;
19436;SDS011;9854;50.968;4.168;2023-02-12T08:03:23;49.40;;;37.53;;
19436;SDS011;9854;50.968;4.168;2023-02-12T08:05:48;45.83;;;37.17;;
19436;SDS011;9854;50.968;4.168;2023-02-12T08:08:17;46.20;;;37.60;;
19436;SDS011;9854;50.968;4.168;2023-02-12T08:10:43;47.13;;;39.58;;
19436;SDS011;9854;50.968;4.168;2023-02-12T08:13:09;47.50;;;38.03;;
19436;SDS011;9854;50.968;4.168;2023-02-12T08:15:34;41.03;;;36.28;;
19436;SDS011;9854;50.968;4.168;2023-02-12T08:18:00;41.63;;;35.08;;
19436;SDS011;9854;50.968;4.168;2023-02-12T08:20:26;40.72;;;35.92;;
19436;SDS011;9854;50.968;4.168;2023-02-12T08:22:51;39.42;;;35.20;;
19436;SDS011;9854;50.968;4.168;2023-02-12T08:25:17;42.42;;;37.08;;
19436;SDS011;9854;50.968;4.168;2023-02-12T08:27:42;40.42;;;36.10;;
19436;SDS011;9854;50.968;4.168;2023-02-12T08:30:08;40.15;;;35.75;;
19436;SDS011;9854;50.968;4.168;2023-02-12T08:32:34;42.78;;;35.13;;
19436;SDS011;9854;50.968;4.168;2023-02-12T08:35:00;43.33;;;36.30;;
19436;SDS011;9854;50.968;4.168;2023-02-12T08:37:25;42.17;;;36.42;;
19436;SDS011;9854;50.968;4.168;2023-02-12T08:39:51;44.88;;;36.58;;
19436;SDS011;9854;50.968;4.168;2023-02-12T08:42:17;41.33;;;35.78;;
19436;SDS011;9854;50.968;4.168;2023-02-12T08:44:42;43.10;;;36.40;;
19436;SDS011;9854;50.968;4.168;2023-02-12T08:47:08;40.10;;;35.70;;
19436;SDS011;9854;50.968;4.168;2023-02-12T08:49:34;43.72;;;35.47;;
19436;SDS011;9854;50.968;4.168;2023-02-12T08:52:00;40.03;;;35.55;;
19436;SDS011;9854;50.968;4.168;2023-02-12T08:54:27;40.47;;;36.03;;
19436;SDS011;9854;50.968;4.168;2023-02-12T08:56:55;40.42;;;35.83;;
19436;SDS011;9854;50.968;4.168;2023-02-12T08:59:21;45.10;;;35.05;;
19436;SDS011;9854;50.968;4.168;2023-02-12T09:01:49;40.45;;;36.08;;
19436;SDS011;9854;50.968;4.168;2023-02-12T09:04:20;39.55;;;35.03;;
19436;SDS011;9854;50.968;4.168;2023-02-12T09:06:48;42.33;;;36.33;;
19436;SDS011;9854;50.968;4.168;2023-02-12T09:09:15;43.45;;;34.75;;
19436;SDS011;9854;50.968;4.168;2023-02-12T09:11:41;35.70;;;31.85;;
19436;SDS011;9854;50.968;4.168;2023-02-12T09:14:07;36.75;;;32.95;;
19436;SDS011;9854;50.968;4.168;2023-02-12T09:16:36;39.42;;;31.70;;
19436;SDS011;9854;50.968;4.168;2023-02-12T09:19:04;35.40;;;30.52;;
19436;SDS011;9854;50.968;4.168;2023-02-12T09:21:30;37.85;;;32.17;;
19436;SDS011;9854;50.968;4.168;2023-02-12T09:23:56;37.92;;;30.33;;
19436;SDS011;9854;50.968;4.168;2023-02-12T09:26:22;37.38;;;33.38;;
19436;SDS011;9854;50.968;4.168;2023-02-12T09:28:52;36.75;;;32.80;;
19436;SDS011;9854;50.968;4.168;2023-02-12T09:31:20;36.95;;;32.50;;
19436;SDS011;9854;50.968;4.168;2023-02-12T09:33:51;36.83;;;32.08;;
19436;SDS011;9854;50.968;4.168;2023-02-12T09:36:19;37.20;;;31.58;;
19436;SDS011;9854;50.968;4.168;2023-02-12T09:38:45;35.58;;;31.67;;
19436;SDS011;9854;50.968;4.168;2023-02-12T09:47:12;39.40;;;33.65;;
19436;SDS011;9854;50.968;4.168;2023-02-12T09:52:29;39.03;;;32.67;;
19436;SDS011;9854;50.968;4.168;2023-02-12T09:54:55;40.03;;;32.65;;
19436;SDS011;9854;50.968;4.168;2023-02-12T09:57:24;36.22;;;32.17;;
19436;SDS011;9854;50.968;4.168;2023-02-12T10:00:02;37.53;;;31.90;;
19436;SDS011;9854;50.968;4.168;2023-02-12T10:02:30;37.30;;;32.40;;
19436;SDS011;9854;50.968;4.168;2023-02-12T10:04:58;39.92;;;34.33;;
19436;SDS011;9854;50.968;4.168;2023-02-12T10:07:39;37.25;;;32.67;;
19436;SDS011;9854;50.968;4.168;2023-02-12T10:12:58;36.60;;;32.67;;
19436;SDS011;9854;50.968;4.168;2023-02-12T10:15:31;36.88;;;31.00;;
19436;SDS011;9854;50.968;4.168;2023-02-12T10:24:03;32.17;;;27.75;;
19436;SDS011;9854;50.968;4.168;2023-02-12T10:26:34;30.33;;;27.00;;
19436;SDS011;9854;50.968;4.168;2023-02-12T10:29:12;28.48;;;25.58;;
19436;SDS011;9854;50.968;4.168;2023-02-12T10:31:54;26.83;;;23.83;;
19436;SDS011;9854;50.968;4.168;2023-02-12T10:34:32;29.25;;;23.30;;
19436;SDS011;9854;50.968;4.168;2023-02-12T10:37:21;20.35;;;18.20;;
19436;SDS011;9854;50.968;4.168;2023-02-12T10:39:52;25.02;;;18.77;;
19436;SDS011;9854;50.968;4.168;2023-02-12T10:42:38;19.42;;;17.40;;
19436;SDS011;9854;50.968;4.168;2023-02-12T10:45:13;23.70;;;18.30;;
19436;SDS011;9854;50.968;4.168;2023-02-12T10:47:41;20.92;;;18.02;;
19436;SDS011;9854;50.968;4.168;2023-02-12T10:50:24;22.17;;;18.40;;
19436;SDS011;9854;50.968;4.168;2023-02-12T10:52:56;21.02;;;18.60;;
19436;SDS011;9854;50.968;4.168;2023-02-12T10:55:29;20.52;;;18.35;;
19436;SDS011;9854;50.968;4.168;2023-02-12T10:58:00;23.23;;;20.75;;
19436;SDS011;9854;50.968;4.168;2023-02-12T11:00:29;24.42;;;21.10;;
19436;SDS011;9854;50.968;4.168;2023-02-12T11:05:38;25.10;;;20.15;;
19436;SDS011;9854;50.968;4.168;2023-02-12T11:08:05;22.92;;;19.42;;
19436;SDS011;9854;50.968;4.168;2023-02-12T11:10:36;21.30;;;19.05;;
19436;SDS011;9854;50.968;4.168;2023-02-12T11:13:04;20.27;;;18.23;;
19436;SDS011;9854;50.968;4.168;2023-02-12T11:15:45;22.73;;;18.73;;
19436;SDS011;9854;50.968;4.168;2023-02-12T11:18:20;21.17;;;18.98;;
19436;SDS011;9854;50.968;4.168;2023-02-12T11:20:52;24.67;;;19.73;;
19436;SDS011;9854;50.968;4.168;2023-02-12T11:25:57;23.52;;;19.67;;
19436;SDS011;9854;50.968;4.168;2023-02-12T11:28:28;22.73;;;20.17;;
19436;SDS011;9854;50.968;4.168;2023-02-12T11:31:03;22.35;;;19.98;;
19436;SDS011;9854;50.968;4.168;2023-02-12T11:33:45;22.50;;;19.50;;
19436;SDS011;9854;50.968;4.168;2023-02-12T11:39:14;25.33;;;20.40;;
19436;SDS011;9854;50.968;4.168;2023-02-12T11:41:40;26.02;;;20.70;;
19436;SDS011;9854;50.968;4.168;2023-02-12T11:46:48;24.17;;;21.58;;
19436;SDS011;9854;50.968;4.168;2023-02-12T11:52:41;25.45;;;21.25;;
19436;SDS011;9854;50.968;4.168;2023-02-12T11:55:21;23.67;;;21.10;;
19436;SDS011;9854;50.968;4.168;2023-02-12T11:58:14;23.48;;;20.17;;
19436;SDS011;9854;50.968;4.168;2023-02-12T12:00:48;23.95;;;20.20;;
19436;SDS011;9854;50.968;4.168;2023-02-12T12:03:24;22.58;;;20.20;;
19436;SDS011;9854;50.968;4.168;2023-02-12T12:06:07;25.60;;;21.52;;
19436;SDS011;9854;50.968;4.168;2023-02-12T12:08:44;24.75;;;20.38;;
19436;SDS011;9854;50.968;4.168;2023-02-12T12:11:25;27.35;;;21.75;;
19436;SDS011;9854;50.968;4.168;2023-02-12T12:14:02;25.30;;;20.90;;
19436;SDS011;9854;50.968;4.168;2023-02-12T12:16:39;28.67;;;21.23;;
19436;SDS011;9854;50.968;4.168;2023-02-12T12:25:09;28.20;;;21.63;;
19436;SDS011;9854;50.968;4.168;2023-02-12T12:32:59;29.98;;;21.88;;
19436;SDS011;9854;50.968;4.168;2023-02-12T12:35:38;23.67;;;20.98;;
19436;SDS011;9854;50.968;4.168;2023-02-12T12:38:28;26.67;;;22.45;;
19436;SDS011;9854;50.968;4.168;2023-02-12T12:46:36;28.35;;;22.10;;
19436;SDS011;9854;50.968;4.168;2023-02-12T12:49:16;25.17;;;22.30;;
19436;SDS011;9854;50.968;4.168;2023-02-12T13:09:44;26.55;;;20.40;;
19436;SDS011;9854;50.968;4.168;2023-02-12T13:23:14;25.58;;;21.48;;
19436;SDS011;9854;50.968;4.168;2023-02-12T13:25:48;21.50;;;19.20;;
19436;SDS011;9854;50.968;4.168;2023-02-12T13:28:45;22.48;;;19.92;;
19436;SDS011;9854;50.968;4.168;2023-02-12T13:31:13;22.60;;;20.25;;
19436;SDS011;9854;50.968;4.168;2023-02-12T13:33:45;27.15;;;21.15;;
19436;SDS011;9854;50.968;4.168;2023-02-12T13:36:15;28.60;;;21.42;;
19436;SDS011;9854;50.968;4.168;2023-02-12T13:38:42;25.27;;;20.92;;
19436;SDS011;9854;50.968;4.168;2023-02-12T13:41:15;25.60;;;20.13;;
19436;SDS011;9854;50.968;4.168;2023-02-12T13:43:48;26.75;;;20.30;;
19436;SDS011;9854;50.968;4.168;2023-02-12T13:49:08;24.63;;;20.60;;
19436;SDS011;9854;50.968;4.168;2023-02-12T13:52:16;24.10;;;19.90;;
19436;SDS011;9854;50.968;4.168;2023-02-12T13:57:27;21.48;;;18.88;;
19436;SDS011;9854;50.968;4.168;2023-02-12T13:59:54;23.98;;;20.33;;
19436;SDS011;9854;50.968;4.168;2023-02-12T14:07:49;26.38;;;21.30;;
19436;SDS011;9854;50.968;4.168;2023-02-12T14:10:22;27.35;;;20.42;;
19436;SDS011;9854;50.968;4.168;2023-02-12T14:13:09;23.98;;;20.27;;
19436;SDS011;9854;50.968;4.168;2023-02-12T14:15:40;25.02;;;20.80;;
19436;SDS011;9854;50.968;4.168;2023-02-12T14:23:38;22.38;;;20.00;;
19436;SDS011;9854;50.968;4.168;2023-02-12T14:26:12;27.65;;;22.35;;
19436;SDS011;9854;50.968;4.168;2023-02-12T14:28:54;29.08;;;21.80;;
19436;SDS011;9854;50.968;4.168;2023-02-12T14:33:52;29.80;;;21.40;;
19436;SDS011;9854;50.968;4.168;2023-02-12T14:36:38;28.20;;;21.95;;
19436;SDS011;9854;50.968;4.168;2023-02-12T14:41:46;29.80;;;22.60;;
19436;SDS011;9854;50.968;4.168;2023-02-12T14:46:53;28.92;;;23.35;;
19436;SDS011;9854;50.968;4.168;2023-02-12T14:52:11;31.75;;;24.45;;
19436;SDS011;9854;50.968;4.168;2023-02-12T14:54:54;30.33;;;23.25;;
19436;SDS011;9854;50.968;4.168;2023-02-12T15:02:40;29.52;;;23.30;;
19436;SDS011;9854;50.968;4.168;2023-02-12T15:08:02;30.67;;;23.52;;
19436;SDS011;9854;50.968;4.168;2023-02-12T15:10:38;30.27;;;23.75;;
19436;SDS011;9854;50.968;4.168;2023-02-12T15:15:33;28.58;;;22.63;;
19436;SDS011;9854;50.968;4.168;2023-02-12T15:24:05;29.58;;;22.20;;
19436;SDS011;9854;50.968;4.168;2023-02-12T15:26:34;30.55;;;23.60;;
19436;SDS011;9854;50.968;4.168;2023-02-12T15:29:03;29.35;;;23.95;;
19436;SDS011;9854;50.968;4.168;2023-02-12T15:31:29;29.42;;;23.50;;
19436;SDS011;9854;50.968;4.168;2023-02-12T15:33:57;32.95;;;23.48;;
19436;SDS011;9854;50.968;4.168;2023-02-12T15:36:26;29.30;;;23.40;;
19436;SDS011;9854;50.968;4.168;2023-02-12T15:38:58;33.25;;;23.52;;
19436;SDS011;9854;50.968;4.168;2023-02-12T15:43:56;34.17;;;23.85;;
19436;SDS011;9854;50.968;4.168;2023-02-12T15:46:22;29.48;;;23.75;;
19436;SDS011;9854;50.968;4.168;2023-02-12T15:48:47;39.42;;;25.65;;
19436;SDS011;9854;50.968;4.168;2023-02-12T15:51:29;32.60;;;24.90;;
19436;SDS011;9854;50.968;4.168;2023-02-12T15:53:59;33.50;;;24.88;;
19436;SDS011;9854;50.968;4.168;2023-02-12T15:56:28;36.20;;;25.90;;
19436;SDS011;9854;50.968;4.168;2023-02-12T15:58:56;33.63;;;23.60;;
19436;SDS011;9854;50.968;4.168;2023-02-12T16:01:25;31.10;;;23.77;;
19436;SDS011;9854;50.968;4.168;2023-02-12T16:03:53;30.83;;;24.10;;
19436;SDS011;9854;50.968;4.168;2023-02-12T16:06:21;33.17;;;23.70;;
19436;SDS011;9854;50.968;4.168;2023-02-12T16:08:49;33.88;;;26.58;;
19436;SDS011;9854;50.968;4.168;2023-02-12T16:11:27;32.35;;;24.95;;
19436;SDS011;9854;50.968;4.168;2023-02-12T16:13:58;32.20;;;24.25;;
19436;SDS011;9854;50.968;4.168;2023-02-12T16:16:30;32.00;;;24.55;;
19436;SDS011;9854;50.968;4.168;2023-02-12T16:21:50;32.83;;;24.77;;
19436;SDS011;9854;50.968;4.168;2023-02-12T16:24:36;31.67;;;24.88;;
19436;SDS011;9854;50.968;4.168;2023-02-12T16:27:08;32.35;;;25.83;;
19436;SDS011;9854;50.968;4.168;2023-02-12T16:29:43;36.03;;;26.58;;
19436;SDS011;9854;50.968;4.168;2023-02-12T16:35:00;40.05;;;26.35;;
19436;SDS011;9854;50.968;4.168;2023-02-12T16:47:51;33.60;;;25.70;;
19436;SDS011;9854;50.968;4.168;2023-02-12T16:51:18;37.40;;;28.00;;
19436;SDS011;9854;50.968;4.168;2023-02-12T16:56:08;39.20;;;28.17;;
19436;SDS011;9854;50.968;4.168;2023-02-12T16:58:39;48.17;;;29.25;;
19436;SDS011;9854;50.968;4.168;2023-02-12T17:01:05;40.90;;;30.05;;
19436;SDS011;9854;50.968;4.168;2023-02-12T17:03:32;40.90;;;29.15;;
19436;SDS011;9854;50.968;4.168;2023-02-12T17:05:58;40.10;;;29.30;;
19436;SDS011;9854;50.968;4.168;2023-02-12T17:08:24;39.92;;;28.73;;
19436;SDS011;9854;50.968;4.168;2023-02-12T17:10:50;38.92;;;29.40;;
19436;SDS011;9854;50.968;4.168;2023-02-12T17:13:16;42.67;;;30.00;;
19436;SDS011;9854;50.968;4.168;2023-02-12T17:15:48;43.28;;;30.63;;
19436;SDS011;9854;50.968;4.168;2023-02-12T17:18:19;42.10;;;30.98;;
19436;SDS011;9854;50.968;4.168;2023-02-12T17:20:47;42.50;;;29.10;;
19436;SDS011;9854;50.968;4.168;2023-02-12T17:23:21;41.45;;;29.88;;
19436;SDS011;9854;50.968;4.168;2023-02-12T17:25:48;44.90;;;32.92;;
19436;SDS011;9854;50.968;4.168;2023-02-12T17:28:13;42.92;;;30.83;;
19436;SDS011;9854;50.968;4.168;2023-02-12T17:30:39;42.83;;;30.45;;
19436;SDS011;9854;50.968;4.168;2023-02-12T17:33:06;44.50;;;31.08;;
19436;SDS011;9854;50.968;4.168;2023-02-12T17:35:31;46.60;;;30.38;;
19436;SDS011;9854;50.968;4.168;2023-02-12T17:37:57;46.35;;;32.75;;
19436;SDS011;9854;50.968;4.168;2023-02-12T17:40:23;47.00;;;31.15;;
19436;SDS011;9854;50.968;4.168;2023-02-12T17:42:49;43.35;;;31.88;;
19436;SDS011;9854;50.968;4.168;2023-02-12T17:45:14;43.22;;;30.77;;
19436;SDS011;9854;50.968;4.168;2023-02-12T17:47:41;40.10;;;30.17;;
19436;SDS011;9854;50.968;4.168;2023-02-12T17:50:07;45.05;;;32.58;;
19436;SDS011;9854;50.968;4.168;2023-02-12T17:52:35;49.90;;;35.10;;
19436;SDS011;9854;50.968;4.168;2023-02-12T17:55:00;49.33;;;34.45;;
19436;SDS011;9854;50.968;4.168;2023-02-12T17:57:27;44.95;;;32.60;;
19436;SDS011;9854;50.968;4.168;2023-02-12T17:59:53;46.70;;;31.38;;
19436;SDS011;9854;50.968;4.168;2023-02-12T18:02:18;47.03;;;31.42;;
19436;SDS011;9854;50.968;4.168;2023-02-12T18:04:44;43.40;;;30.42;;
19436;SDS011;9854;50.968;4.168;2023-02-12T18:07:09;42.60;;;31.48;;
19436;SDS011;9854;50.968;4.168;2023-02-12T18:09:36;26.75;;;21.05;;